Arcata, CA

11:35 PM PDT on June 01, 2015 (GMT -0700)
Arcata | | Change Station
CLOSE
Current Station
Airport
Location: Arcata,
Elevation: 217 ft
Nearby Weather Stations

Elev 217 ft 40.98 °N, 124.10 °W | Updated 30 minutes ago

Fog
Fog
53 °F
Feels Like 53 °F
N
7
Wind Variable Wind from WSW

Today
High -- | Low -- °F
--% Chance of Precip.
Yesterday
High -- | Low -- °F
Precip. -- in
5:46 AM 8:41 PM
Full, 100% visible
Pressure 30.10 in
Visibility 0.2 miles
Clouds
Dew Point 53 °F
Humidity 100%
Rainfall 0.05 in
Snow Depth Not available.
UV Not available.
Pollen 2.50 out of 12
Air Quality Not available.
Flu Activity Sporadic
SPECI KACV 020605Z AUTO 25006KT 1/4SM R32/1000V1800FT FG VV001 12/12 A3010 RMK AO2 T01170117

More Conditions Fewer Conditions

Pressure 30.10 in
Visibility 0.2 miles
Clouds
Dew Point 53 °F
Humidity 100%
Rainfall 0.05 in
Snow Depth Not available.
UV Not available.
Pollen 2.50 out of 12
Air Quality Not available.
Flu Activity Sporadic
SPECI KACV 020605Z AUTO 25006KT 1/4SM R32/1000V1800FT FG VV001 12/12 A3010 RMK AO2 T01170117

More Conditions Fewer Conditions

10-Day Weather Forecast

Almanac

Astronomy

Jun. 01, 2015 Rise Set
Actual Time
Civil Twilight
Nautical Twilight
Astronomical Twilight
Moon
Length of Visible Light
Length of Day
Tomorrow will be .
, % of the Moon is Illuminated

Today's Extremes

State Highs State Lows

Community

WunderPhotos

Upload Photos

1,825,919 photos uploaded!

WunderBlogs® & News

Nearby

Air Quality

  Air Quality AQ Index Pollutant
Not available.

Snow Depth

Station Depth Elevation

Earthquake Activity

City Distance Mag. Time & Date
Minimum magnitude displayed is 2.5.

Coastal Water Temperatures

Place Temperature

Stations

Nearby Weather Stations

Station Location Temp. Windchill Dew Point Humidity Wind Precip. Elev Updated Type